Time;durP1;ratioP1;P1;durP2;ratioP2;P2;SDS_P1;SDS_P2;PMS_P1;PMS_P2;Temp;Humidity;BMP_temperature;BMP_pressure;BME280_temperature;BME280_humidity;BME280_pressure;Samples;Min_cycle;Max_cycle;Signal;HPM_P1;HPM_P2
2021/04/23 00:01:48;;;;;;;0.10;0.00;;;15.10;41.20;;;;;;5039019;28;20045;-81
2021/04/23 00:04:15;;;;;;;0.10;0.00;;;15.10;41.20;;;;;;5002147;28;20030;-81
2021/04/23 00:06:44;;;;;;;0.88;0.10;;;15.00;41.10;;;;;;4999746;28;20038;-81
2021/04/23 00:09:16;;;;;;;0.10;0.00;;;15.00;41.10;;;;;;4995278;28;20513;-81
2021/04/23 00:11:47;;;;;;;0.35;0.10;;;15.00;41.10;;;;;;5026220;28;20033;-81
2021/04/23 00:14:14;;;;;;;0.10;0.10;;;14.90;41.10;;;;;;5043194;28;20387;-81
2021/04/23 00:16:40;;;;;;;0.20;0.00;;;14.90;41.20;;;;;;4996415;28;20053;-81
2021/04/23 00:19:09;;;;;;;0.30;0.15;;;14.80;41.30;;;;;;4960616;28;20037;-81
2021/04/23 00:21:35;;;;;;;1.02;0.32;;;14.80;41.40;;;;;;4966088;28;20034;-81
2021/04/23 00:24:01;;;;;;;0.50;0.13;;;14.80;41.40;;;;;;4980199;28;20026;-81
2021/04/23 00:26:27;;;;;;;0.05;0.05;;;14.80;41.40;;;;;;4986286;28;20278;-81
2021/04/23 00:28:53;;;;;;;3.22;0.38;;;14.80;41.40;;;;;;4978506;28;20061;-81
2021/04/23 00:31:19;;;;;;;0.10;0.00;;;14.80;41.30;;;;;;5000954;28;20050;-81
2021/04/23 00:33:45;;;;;;;0.95;0.30;;;14.80;41.40;;;;;;4981479;28;20403;-81
2021/04/23 00:36:12;;;;;;;0.22;0.05;;;14.70;41.40;;;;;;4999832;28;20030;-81
2021/04/23 00:38:38;;;;;;;5.18;0.10;;;14.70;41.40;;;;;;4984411;28;20498;-81
2021/04/23 00:41:06;;;;;;;0.30;0.10;;;14.70;41.40;;;;;;5003083;28;20034;-81
2021/04/23 00:43:34;;;;;;;0.52;0.10;;;14.60;41.40;;;;;;4964397;28;20510;-81
2021/04/23 00:46:01;;;;;;;0.38;0.30;;;14.60;41.50;;;;;;4982174;28;20043;-81
2021/04/23 00:48:27;;;;;;;0.65;0.40;;;14.50;41.40;;;;;;4999245;28;20057;-81
2021/04/23 00:51:02;;;;;;;0.00;0.00;;;14.50;41.50;;;;;;4992635;28;20037;-81
2021/04/23 00:53:30;;;;;;;1.10;0.50;;;14.50;41.50;;;;;;4973163;28;20035;-81
2021/04/23 00:55:57;;;;;;;0.00;0.00;;;14.40;41.50;;;;;;4985816;28;20042;-81
2021/04/23 00:58:26;;;;;;;2.90;0.00;;;14.40;41.50;;;;;;4974434;28;20046;-81
2021/04/23 01:00:57;;;;;;;0.00;0.00;;;14.30;41.50;;;;;;4988356;28;20459;-81
2021/04/23 01:03:24;;;;;;;0.00;0.00;;;14.30;41.60;;;;;;5038730;28;20026;-81
2021/04/23 01:05:51;;;;;;;0.47;0.20;;;14.20;41.60;;;;;;4995502;28;20030;-81
2021/04/23 01:08:18;;;;;;;1.25;0.47;;;14.10;41.60;;;;;;5011206;28;20048;-80
2021/04/23 01:10:44;;;;;;;0.08;0.08;;;14.10;41.70;;;;;;5013235;28;20065;-81
2021/04/23 01:13:10;;;;;;;0.15;0.15;;;14.10;41.60;;;;;;4998544;28;20041;-81
2021/04/23 01:15:36;;;;;;;0.15;0.10;;;14.10;41.70;;;;;;5030236;28;20037;-81
2021/04/23 01:18:03;;;;;;;0.55;0.00;;;14.10;41.60;;;;;;5036116;28;20141;-81
2021/04/23 01:20:29;;;;;;;0.17;0.10;;;14.10;41.70;;;;;;5009002;28;20057;-81
2021/04/23 01:22:55;;;;;;;0.08;0.08;;;14.00;41.60;;;;;;5040286;28;20426;-81
2021/04/23 01:25:22;;;;;;;0.10;0.00;;;14.00;41.60;;;;;;5006932;28;20037;-81
2021/04/23 01:27:48;;;;;;;0.68;0.10;;;13.90;41.70;;;;;;5008672;28;20042;-81
2021/04/23 01:30:16;;;;;;;3.53;0.52;;;13.90;41.70;;;;;;5016260;28;20490;-81
2021/04/23 01:32:42;;;;;;;0.30;0.10;;;13.80;41.70;;;;;;5010057;28;20034;-82
2021/04/23 01:35:13;;;;;;;1.98;0.13;;;13.80;41.60;;;;;;5011873;28;20041;-81
2021/04/23 01:37:39;;;;;;;0.10;0.00;;;13.80;41.70;;;;;;4994868;28;20046;-81
2021/04/23 01:40:07;;;;;;;0.95;0.38;;;13.80;41.70;;;;;;5006336;28;20030;-81
2021/04/23 01:42:33;;;;;;;0.63;0.20;;;13.80;41.70;;;;;;5007325;28;20030;-81
2021/04/23 01:44:59;;;;;;;6.47;0.10;;;13.80;41.70;;;;;;5044253;28;20042;-81
2021/04/23 01:47:25;;;;;;;0.85;0.10;;;13.80;41.60;;;;;;4995328;28;20414;-81
2021/04/23 01:49:55;;;;;;;1.60;0.10;;;13.70;41.60;;;;;;5009048;28;20037;-80
2021/04/23 01:52:21;;;;;;;0.85;0.25;;;13.70;41.70;;;;;;5001942;28;20029;-81
2021/04/23 01:54:48;;;;;;;0.30;0.00;;;13.70;41.70;;;;;;5012200;28;20023;-80
2021/04/23 01:57:14;;;;;;;0.40;0.00;;;13.60;41.70;;;;;;5006728;28;20037;-80
2021/04/23 01:59:42;;;;;;;1.30;0.40;;;13.60;41.70;;;;;;5009015;28;20030;-81
2021/04/23 02:02:08;;;;;;;0.03;0.00;;;13.60;41.80;;;;;;5020450;28;20045;-80
2021/04/23 02:04:34;;;;;;;0.47;0.10;;;13.50;41.70;;;;;;5007387;28;20034;-81
2021/04/23 02:07:00;;;;;;;0.00;0.00;;;13.50;41.80;;;;;;4984006;28;20511;-81
2021/04/23 02:09:27;;;;;;;0.30;0.17;;;13.50;41.80;;;;;;5006364;28;20498;-81
2021/04/23 02:11:53;;;;;;;1.17;0.47;;;13.50;41.80;;;;;;5014344;28;20060;-80
2021/04/23 02:14:19;;;;;;;1.08;0.15;;;13.50;41.80;;;;;;5010023;28;20037;-81
2021/04/23 02:16:45;;;;;;;0.57;0.32;;;13.40;41.80;;;;;;5005209;28;20045;-81
2021/04/23 02:19:12;;;;;;;0.00;0.00;;;13.40;41.80;;;;;;5038977;28;20391;-81
2021/04/23 02:21:38;;;;;;;0.22;0.10;;;13.40;41.90;;;;;;5042042;28;20386;-80
2021/04/23 02:24:05;;;;;;;0.20;0.20;;;13.40;41.90;;;;;;5021388;28;20411;-80
2021/04/23 02:26:32;;;;;;;0.10;0.05;;;13.40;41.90;;;;;;5006220;28;20053;-81
2021/04/23 02:28:58;;;;;;;0.17;0.00;;;13.30;41.90;;;;;;5011035;28;20038;-80
2021/04/23 02:31:26;;;;;;;0.00;0.00;;;13.30;42.00;;;;;;5008914;28;21231;-80
2021/04/23 02:33:54;;;;;;;2.33;0.20;;;13.20;41.90;;;;;;5021544;28;20416;-81
2021/04/23 02:36:20;;;;;;;0.10;0.10;;;13.20;42.00;;;;;;5026194;28;20388;-81
2021/04/23 02:38:46;;;;;;;1.15;0.40;;;13.20;42.10;;;;;;5038154;28;20368;-81
2021/04/23 02:41:13;;;;;;;3.10;0.40;;;13.20;42.10;;;;;;4993455;28;20396;-81
2021/04/23 02:43:41;;;;;;;0.57;0.17;;;13.20;42.10;;;;;;5007196;28;20398;-80
2021/04/23 02:46:07;;;;;;;0.20;0.10;;;13.10;42.20;;;;;;4980410;28;20046;-80
2021/04/23 02:48:34;;;;;;;0.10;0.00;;;13.10;42.20;;;;;;5037420;28;20407;-80
2021/04/23 02:51:06;;;;;;;0.47;0.10;;;13.10;42.20;;;;;;5011628;28;20021;-80
2021/04/23 02:53:32;;;;;;;;;;;13.10;42.20;;;;;;4997465;28;20049;-80
2021/04/23 02:55:58;;;;;;;0.70;0.28;;;13.10;42.30;;;;;;5003087;28;19927;-80
2021/04/23 02:58:27;;;;;;;0.17;0.00;;;13.00;42.20;;;;;;5002170;28;20034;-81
2021/04/23 03:00:56;;;;;;;2.40;0.40;;;13.00;42.20;;;;;;5003167;28;20038;-80
2021/04/23 03:03:22;;;;;;;0.28;0.05;;;13.00;42.40;;;;;;5010606;28;20037;-80
2021/04/23 03:05:51;;;;;;;2.30;0.22;;;13.00;42.40;;;;;;5007276;28;20030;-80
2021/04/23 03:08:18;;;;;;;0.20;0.05;;;12.90;42.40;;;;;;4996731;28;20034;-80
2021/04/23 03:10:49;;;;;;;0.10;0.05;;;12.90;42.40;;;;;;4999379;28;20033;-80
2021/04/23 03:13:18;;;;;;;0.15;0.00;;;12.90;42.40;;;;;;5016728;28;20042;-80
2021/04/23 03:15:44;;;;;;;0.43;0.20;;;12.90;42.50;;;;;;4983896;28;20037;-80
2021/04/23 03:18:15;;;;;;;0.05;0.05;;;12.90;42.60;;;;;;5009570;28;20026;-80
2021/04/23 03:20:41;;;;;;;0.65;0.10;;;12.90;42.60;;;;;;4991475;28;20041;-83
2021/04/23 03:23:07;;;;;;;1.08;0.10;;;12.80;42.60;;;;;;4998541;28;20027;-80
2021/04/23 03:25:34;;;;;;;0.82;0.03;;;12.80;42.70;;;;;;5010967;28;20479;-82
2021/04/23 03:28:00;;;;;;;0.80;0.32;;;12.80;42.70;;;;;;5004573;28;20041;-81
2021/04/23 03:30:31;;;;;;;0.22;0.22;;;12.70;42.80;;;;;;5017264;28;20034;-82
2021/04/23 03:32:57;;;;;;;0.40;0.15;;;12.70;42.90;;;;;;5005965;28;20026;-81
2021/04/23 03:35:24;;;;;;;0.30;0.10;;;12.70;42.90;;;;;;5040759;28;20045;-81
2021/04/23 03:37:50;;;;;;;1.35;0.17;;;12.60;42.90;;;;;;5028112;28;20487;-82
2021/04/23 03:40:18;;;;;;;3.40;0.15;;;12.60;43.00;;;;;;5003319;28;20033;-85
2021/04/23 03:42:44;;;;;;;0.00;0.00;;;12.60;43.10;;;;;;5005912;28;20029;-80
2021/04/23 03:45:12;;;;;;;0.20;0.20;;;12.50;43.10;;;;;;5011524;28;20054;-80
2021/04/23 03:47:38;;;;;;;5.82;0.15;;;12.50;43.20;;;;;;5020487;28;20057;-80
2021/04/23 03:50:05;;;;;;;0.10;0.08;;;12.40;43.20;;;;;;5023310;28;20026;-80
2021/04/23 03:52:31;;;;;;;6.95;0.38;;;12.40;43.40;;;;;;5008638;28;20036;-82
2021/04/23 03:54:58;;;;;;;0.10;0.05;;;12.40;43.40;;;;;;4994166;28;20030;-80
2021/04/23 03:57:24;;;;;;;0.00;0.00;;;12.30;43.50;;;;;;5037836;28;20034;-81
2021/04/23 03:59:50;;;;;;;5.35;0.25;;;12.30;43.50;;;;;;5008013;28;20049;-80
2021/04/23 04:02:16;;;;;;;15.77;0.38;;;12.30;43.60;;;;;;5011421;28;20033;-80
2021/04/23 04:04:42;;;;;;;0.00;0.00;;;12.20;43.60;;;;;;5015838;28;20038;-82
2021/04/23 04:07:08;;;;;;;3.22;0.25;;;12.20;43.70;;;;;;5008378;28;20049;-80
2021/04/23 04:09:34;;;;;;;0.50;0.15;;;12.20;43.70;;;;;;4991272;28;20041;-79
2021/04/23 04:12:00;;;;;;;6.10;0.30;;;12.20;43.80;;;;;;5009126;28;20038;-80
2021/04/23 04:14:27;;;;;;;0.20;0.20;;;12.10;43.70;;;;;;5010059;28;20040;-81
2021/04/23 04:16:53;;;;;;;1.13;0.63;;;12.20;43.80;;;;;;5010534;28;20045;-80
2021/04/23 04:19:19;;;;;;;2.20;0.10;;;12.10;43.90;;;;;;4990118;28;20057;-80
2021/04/23 04:21:45;;;;;;;0.00;0.00;;;12.10;43.90;;;;;;5008366;28;20030;-81
2021/04/23 04:24:11;;;;;;;0.47;0.10;;;12.10;43.90;;;;;;5008564;28;20034;-81
2021/04/23 04:26:37;;;;;;;0.30;0.00;;;12.10;44.00;;;;;;5025209;28;20033;-82
2021/04/23 04:29:04;;;;;;;0.10;0.00;;;12.10;44.00;;;;;;4998830;28;20125;-80
2021/04/23 04:31:31;;;;;;;1.95;0.20;;;12.10;43.90;;;;;;5008581;28;20030;-80
2021/04/23 04:33:57;;;;;;;0.55;0.35;;;12.10;44.00;;;;;;5007659;28;20042;-80
2021/04/23 04:36:24;;;;;;;1.83;0.15;;;12.10;44.10;;;;;;5008011;28;20037;-80
2021/04/23 04:38:50;;;;;;;0.00;0.00;;;12.00;44.20;;;;;;5007539;28;20027;-80
2021/04/23 04:41:16;;;;;;;10.13;0.10;;;12.00;44.30;;;;;;5009483;28;20033;-80
2021/04/23 04:43:42;;;;;;;0.77;0.20;;;12.00;44.40;;;;;;5038198;28;20034;-80
2021/04/23 04:46:08;;;;;;;3.40;0.13;;;11.90;44.40;;;;;;4989523;28;20050;-81
2021/04/23 04:48:34;;;;;;;0.30;0.10;;;11.90;44.40;;;;;;5015348;28;20034;-80
2021/04/23 04:51:02;;;;;;;0.08;0.00;;;11.80;44.50;;;;;;5018043;28;20053;-80
2021/04/23 04:53:29;;;;;;;0.32;0.20;;;11.80;44.60;;;;;;5008836;28;20053;-79
2021/04/23 04:55:56;;;;;;;3.13;0.15;;;11.80;44.70;;;;;;5016265;28;20490;-80
2021/04/23 04:58:24;;;;;;;2.35;0.35;;;11.80;44.70;;;;;;5005689;28;20053;-79
2021/04/23 05:00:50;;;;;;;7.70;0.68;;;11.80;44.70;;;;;;5006367;28;20038;-80
2021/04/23 05:03:16;;;;;;;1.92;0.35;;;11.80;44.70;;;;;;4992700;28;20046;-81
2021/04/23 05:05:43;;;;;;;0.73;0.05;;;11.80;44.80;;;;;;5007809;28;20368;-81
2021/04/23 05:08:10;;;;;;;0.00;0.00;;;11.70;44.80;;;;;;5010231;28;20065;-81
2021/04/23 05:10:36;;;;;;;9.73;0.57;;;11.70;44.90;;;;;;5034274;28;20025;-80
2021/04/23 05:13:02;;;;;;;0.73;0.10;;;11.70;45.10;;;;;;5008529;28;20029;-80
2021/04/23 05:15:28;;;;;;;1.35;0.30;;;11.60;45.10;;;;;;5007604;28;20037;-81
2021/04/23 05:17:54;;;;;;;0.90;0.35;;;11.60;45.20;;;;;;5007585;28;20053;-80
2021/04/23 05:20:20;;;;;;;0.20;0.10;;;11.60;45.40;;;;;;5009646;28;20022;-81
2021/04/23 05:22:47;;;;;;;0.10;0.00;;;11.50;45.50;;;;;;5038042;28;20046;-82
2021/04/23 05:25:19;;;;;;;1.17;0.10;;;11.50;45.50;;;;;;5009861;28;20392;-82
2021/04/23 05:27:45;;;;;;;1.02;0.08;;;11.40;45.60;;;;;;5008392;28;20038;-84
2021/04/23 05:30:12;;;;;;;0.60;0.28;;;11.40;45.60;;;;;;5008161;28;20380;-84
2021/04/23 05:32:39;;;;;;;0.65;0.25;;;11.40;45.60;;;;;;5005175;28;20154;-82
2021/04/23 05:35:06;;;;;;;1.60;0.20;;;11.40;45.60;;;;;;5022171;28;20502;-83
2021/04/23 05:37:33;;;;;;;0.40;0.20;;;11.50;45.60;;;;;;5008994;28;20036;-83
2021/04/23 05:39:59;;;;;;;0.00;0.00;;;11.60;45.60;;;;;;4991600;28;20064;-82
2021/04/23 05:42:25;;;;;;;0.17;0.17;;;11.70;45.50;;;;;;5006217;28;20037;-84
2021/04/23 05:44:51;;;;;;;0.77;0.10;;;11.80;45.40;;;;;;5008608;28;20042;-83
2021/04/23 05:47:17;;;;;;;0.13;0.10;;;11.90;45.30;;;;;;5007930;28;20048;-82
2021/04/23 05:49:44;;;;;;;0.73;0.20;;;12.10;45.20;;;;;;5008803;28;21561;-82
2021/04/23 05:52:10;;;;;;;0.10;0.03;;;12.10;45.10;;;;;;5007213;28;20026;-82
2021/04/23 05:54:37;;;;;;;0.00;0.00;;;12.20;45.10;;;;;;5011959;28;20037;-82
2021/04/23 05:57:03;;;;;;;0.00;0.00;;;12.40;45.10;;;;;;4993601;28;20042;-83
2021/04/23 05:59:30;;;;;;;0.30;0.05;;;12.50;45.00;;;;;;5011424;28;20054;-81
2021/04/23 06:01:57;;;;;;;0.25;0.10;;;12.50;44.90;;;;;;5013424;28;20057;-83
2021/04/23 06:04:23;;;;;;;0.80;0.00;;;12.60;44.90;;;;;;5010708;28;20038;-82
2021/04/23 06:06:49;;;;;;;0.00;0.00;;;12.60;44.90;;;;;;5037361;28;20041;-83
2021/04/23 06:09:15;;;;;;;0.00;0.00;;;12.70;44.90;;;;;;4999165;28;20038;-82
2021/04/23 06:11:41;;;;;;;17.70;0.30;;;12.70;44.90;;;;;;5012424;28;20026;-82
2021/04/23 06:14:07;;;;;;;0.03;0.03;;;12.80;44.90;;;;;;5014442;28;20036;-81
2021/04/23 06:16:34;;;;;;;0.93;0.17;;;12.80;44.90;;;;;;5010613;28;20491;-81
2021/04/23 06:19:00;;;;;;;0.60;0.20;;;12.90;44.90;;;;;;5012749;28;20030;-81
2021/04/23 06:21:26;;;;;;;0.10;0.10;;;12.80;44.90;;;;;;5009544;28;20034;-82
2021/04/23 06:23:52;;;;;;;2.38;0.05;;;12.80;45.00;;;;;;5012084;28;20026;-83
2021/04/23 06:26:18;;;;;;;4.78;0.35;;;12.90;45.00;;;;;;5011868;28;20038;-81
2021/04/23 06:28:45;;;;;;;0.13;0.10;;;13.00;45.00;;;;;;5040393;28;20045;-81
2021/04/23 06:31:12;;;;;;;0.38;0.10;;;13.00;45.00;;;;;;4991962;28;20034;-82
2021/04/23 06:33:40;;;;;;;0.10;0.10;;;13.00;44.90;;;;;;4993282;28;20041;-81
2021/04/23 06:36:07;;;;;;;0.20;0.13;;;13.00;44.90;;;;;;5024135;28;20037;-81
2021/04/23 06:38:33;;;;;;;0.00;0.00;;;13.10;44.90;;;;;;4977531;28;20038;-83
2021/04/23 06:41:00;;;;;;;0.00;0.00;;;13.10;44.80;;;;;;5013704;28;20031;-82
2021/04/23 06:43:26;;;;;;;0.00;0.00;;;13.20;44.80;;;;;;5009090;28;20033;-82
2021/04/23 06:45:52;;;;;;;1.00;0.38;;;13.30;44.70;;;;;;4988373;28;20041;-83
2021/04/23 06:48:18;;;;;;;0.40;0.30;;;13.30;44.70;;;;;;4998974;28;20050;-81
2021/04/23 06:50:45;;;;;;;0.00;0.00;;;13.40;44.60;;;;;;4994375;28;20026;-82
2021/04/23 06:53:11;;;;;;;0.52;0.10;;;13.50;44.50;;;;;;4995888;28;20037;-82
2021/04/23 06:55:37;;;;;;;0.60;0.10;;;13.60;44.50;;;;;;5010011;28;20422;-82
2021/04/23 06:58:04;;;;;;;2.33;0.05;;;13.60;44.40;;;;;;5010551;28;20029;-82
2021/04/23 07:00:32;;;;;;;0.50;0.05;;;13.70;44.30;;;;;;5008488;28;20034;-83
2021/04/23 07:02:58;;;;;;;0.00;0.00;;;13.80;44.30;;;;;;4992485;28;20034;-82
2021/04/23 07:05:25;;;;;;;0.00;0.00;;;13.80;44.30;;;;;;5011769;28;20360;-82
2021/04/23 07:07:51;;;;;;;0.68;0.22;;;14.00;44.40;;;;;;5012337;28;20127;-79
2021/04/23 07:10:20;;;;;;;1.27;0.10;;;14.20;44.50;;;;;;5009507;28;20041;-82
2021/04/23 07:12:46;;;;;;;3.50;0.13;;;14.40;44.60;;;;;;5001899;28;20034;-80
2021/04/23 07:15:15;;;;;;;2.92;0.20;;;14.60;44.70;;;;;;5016379;28;20387;-80
2021/04/23 07:17:42;;;;;;;0.40;0.10;;;14.70;44.80;;;;;;4993961;28;20043;-80
2021/04/23 07:20:08;;;;;;;1.88;0.38;;;14.80;44.90;;;;;;5011275;28;20349;-79
2021/04/23 07:22:35;;;;;;;0.47;0.20;;;15.00;44.80;;;;;;5007191;28;20072;-80
2021/04/23 07:25:01;;;;;;;0.00;0.00;;;15.20;45.00;;;;;;5005861;28;20038;-82
2021/04/23 07:27:27;;;;;;;1.20;0.80;;;15.60;44.90;;;;;;5010405;28;20038;-81
2021/04/23 07:29:53;;;;;;;0.82;0.20;;;15.80;44.90;;;;;;5006960;28;20034;-82
2021/04/23 07:32:19;;;;;;;0.10;0.00;;;15.90;44.80;;;;;;5010406;28;20035;-82
2021/04/23 07:34:45;;;;;;;2.33;0.45;;;15.90;44.80;;;;;;5013059;28;20517;-83
2021/04/23 07:37:11;;;;;;;0.00;0.00;;;16.00;44.70;;;;;;5007873;28;20045;-79
2021/04/23 07:39:37;;;;;;;0.10;0.00;;;16.10;44.60;;;;;;5019805;28;20467;-85
2021/04/23 07:42:04;;;;;;;1.27;0.10;;;16.30;44.40;;;;;;5011967;28;20029;-78
2021/04/23 07:44:30;;;;;;;2.60;0.20;;;16.40;44.20;;;;;;5010114;28;20037;-85
2021/04/23 07:46:56;;;;;;;1.15;0.20;;;16.50;43.80;;;;;;5044440;28;20376;-82
2021/04/23 07:49:22;;;;;;;1.05;0.00;;;16.50;43.50;;;;;;5026039;28;20042;-79
2021/04/23 07:51:48;;;;;;;0.90;0.15;;;16.50;43.40;;;;;;5011364;28;20026;-81
2021/04/23 07:54:15;;;;;;;0.43;0.03;;;16.60;43.20;;;;;;5009934;28;20040;-82
2021/04/23 07:56:41;;;;;;;1.55;0.22;;;16.60;43.00;;;;;;5010307;28;20029;-82
2021/04/23 07:59:07;;;;;;;0.55;0.10;;;16.70;42.70;;;;;;5010896;28;20033;-82
2021/04/23 08:01:34;;;;;;;4.75;0.57;;;16.80;42.70;;;;;;5009710;28;20414;-87
2021/04/23 08:04:00;;;;;;;0.20;0.13;;;16.90;42.50;;;;;;5010453;28;20022;-85
2021/04/23 08:06:27;;;;;;;0.70;0.08;;;17.00;42.40;;;;;;5009161;28;20030;-83
2021/04/23 08:08:53;;;;;;;10.10;0.47;;;17.00;42.10;;;;;;4991262;28;20483;-81
2021/04/23 08:11:19;;;;;;;4.85;0.20;;;17.00;42.10;;;;;;5011226;28;20379;-80
2021/04/23 08:13:45;;;;;;;0.08;0.00;;;17.10;42.10;;;;;;5011485;28;20057;-81
2021/04/23 08:16:11;;;;;;;2.85;0.30;;;17.20;41.90;;;;;;5008799;28;20034;-82
2021/04/23 08:18:39;;;;;;;0.03;0.00;;;17.20;41.60;;;;;;5006657;28;20038;-79
2021/04/23 08:21:06;;;;;;;2.05;0.10;;;17.40;41.60;;;;;;5010605;28;20018;-80
2021/04/23 08:23:33;;;;;;;0.25;0.08;;;17.60;41.40;;;;;;5008133;28;20046;-79
2021/04/23 08:26:02;;;;;;;0.00;0.00;;;17.80;41.10;;;;;;5011050;28;20038;-80
2021/04/23 08:28:29;;;;;;;0.40;0.00;;;17.90;40.90;;;;;;5008325;28;20403;-81
2021/04/23 08:30:55;;;;;;;3.60;0.30;;;18.00;40.80;;;;;;5002582;28;20049;-82
2021/04/23 08:33:21;;;;;;;0.00;0.00;;;18.00;40.80;;;;;;5009105;28;20025;-82
2021/04/23 08:35:47;;;;;;;0.20;0.03;;;18.00;40.70;;;;;;5009028;28;20533;-84
2021/04/23 08:38:13;;;;;;;0.00;0.00;;;18.10;40.60;;;;;;5010546;28;20034;-81
2021/04/23 08:40:39;;;;;;;0.00;0.00;;;18.20;40.50;;;;;;5003837;28;20042;-85
2021/04/23 08:43:05;;;;;;;7.85;0.55;;;18.30;40.30;;;;;;5009192;28;20457;-83
2021/04/23 08:45:32;;;;;;;0.65;0.10;;;18.30;40.30;;;;;;5008731;28;20038;-86
2021/04/23 08:47:58;;;;;;;0.77;0.20;;;18.40;40.20;;;;;;5008658;28;20402;-90
2021/04/23 08:50:25;;;;;;;0.52;0.10;;;18.50;40.00;;;;;;5008596;28;20033;-85
2021/04/23 08:52:52;;;;;;;1.00;0.15;;;18.70;39.90;;;;;;5036562;28;20046;-81
2021/04/23 08:55:20;;;;;;;0.17;0.00;;;18.80;39.80;;;;;;5004779;28;20026;-79
2021/04/23 08:57:46;;;;;;;0.65;0.13;;;18.90;39.60;;;;;;5008366;28;20026;-83
2021/04/23 09:00:15;;;;;;;0.30;0.20;;;19.10;39.40;;;;;;5008371;28;20041;-80
2021/04/23 09:02:42;;;;;;;0.08;0.08;;;19.20;39.20;;;;;;5010125;28;20376;-80
2021/04/23 09:05:08;;;;;;;0.22;0.10;;;19.20;39.00;;;;;;5010340;28;20022;-81
2021/04/23 09:07:35;;;;;;;0.38;0.10;;;19.20;38.90;;;;;;5009008;28;20034;-80
2021/04/23 09:10:14;;;;;;;1.45;0.03;;;19.10;38.90;;;;;;4990927;28;20029;-81
2021/04/23 09:12:40;;;;;;;0.10;0.00;;;19.20;38.90;;;;;;4990820;28;20106;-81
2021/04/23 09:15:22;;;;;;;0.65;0.30;;;19.40;38.70;;;;;;5026221;28;20030;-84
2021/04/23 09:18:05;;;;;;;1.55;0.30;;;19.50;38.60;;;;;;5004262;28;20029;-81
2021/04/23 09:20:31;;;;;;;0.82;0.22;;;19.70;38.30;;;;;;4992017;28;20046;-81
2021/04/23 09:23:18;;;;;;;0.73;0.52;;;19.80;38.10;;;;;;5038319;28;20029;-81
2021/04/23 09:25:48;;;;;;;1.45;0.30;;;19.80;38.10;;;;;;5009613;28;20025;-77
2021/04/23 09:28:14;;;;;;;0.77;0.25;;;19.90;38.00;;;;;;4992948;28;20038;-79
2021/04/23 09:30:42;;;;;;;0.20;0.15;;;20.00;37.90;;;;;;5006447;28;20026;-79
2021/04/23 09:33:26;;;;;;;0.00;0.00;;;20.00;37.80;;;;;;5012205;28;20360;-79
2021/04/23 09:35:53;;;;;;;0.28;0.28;;;20.00;37.80;;;;;;4982642;28;20056;-79
2021/04/23 09:38:19;;;;;;;0.00;0.00;;;20.10;37.80;;;;;;5012893;28;20018;-79
2021/04/23 09:40:45;;;;;;;0.45;0.00;;;20.10;37.70;;;;;;5041975;28;20030;-81
2021/04/23 09:43:12;;;;;;;1.92;0.20;;;20.20;37.50;;;;;;5013112;28;20395;-81
2021/04/23 09:45:51;;;;;;;0.10;0.10;;;20.40;37.40;;;;;;5009729;28;20499;-81
2021/04/23 09:48:22;;;;;;;0.30;0.13;;;20.50;37.10;;;;;;4993436;28;20052;-80
2021/04/23 09:50:48;;;;;;;0.55;0.10;;;20.50;36.90;;;;;;5012304;28;20026;-82
2021/04/23 09:53:14;;;;;;;1.05;0.10;;;20.60;37.00;;;;;;5012967;28;20038;-83
2021/04/23 09:55:40;;;;;;;11.38;0.32;;;20.60;36.80;;;;;;5012416;28;20030;-82
2021/04/23 09:58:08;;;;;;;0.98;0.05;;;20.70;36.80;;;;;;5012410;28;20033;-86
2021/04/23 10:00:36;;;;;;;0.50;0.20;;;20.70;36.70;;;;;;5010418;28;20045;-83
2021/04/23 10:03:03;;;;;;;0.28;0.20;;;20.70;36.60;;;;;;4993222;28;20026;-83
2021/04/23 10:05:36;;;;;;;0.25;0.00;;;20.80;36.50;;;;;;5011433;28;20049;-84
2021/04/23 10:08:05;;;;;;;0.40;0.25;;;20.90;36.50;;;;;;5013971;28;20045;-83
2021/04/23 10:10:31;;;;;;;0.05;0.00;;;21.00;36.40;;;;;;5002942;28;20030;-84
2021/04/23 10:13:06;;;;;;;1.48;0.57;;;21.20;36.40;;;;;;5006633;28;20026;-86
2021/04/23 10:15:41;;;;;;;0.05;0.05;;;21.30;36.20;;;;;;5037712;28;20029;-87
2021/04/23 10:18:09;;;;;;;0.65;0.47;;;21.40;36.00;;;;;;5020974;28;21293;-85
2021/04/23 10:20:45;;;;;;;4.05;0.20;;;21.50;35.90;;;;;;4977861;28;20407;-85
2021/04/23 10:23:13;;;;;;;0.50;0.32;;;21.60;35.80;;;;;;5041642;28;20022;-86
2021/04/23 10:25:40;;;;;;;1.80;0.57;;;21.70;35.70;;;;;;5010854;28;20022;-84
2021/04/23 10:28:09;;;;;;;0.03;0.00;;;21.80;35.60;;;;;;5012102;28;20038;-87
2021/04/23 10:30:37;;;;;;;3.10;0.30;;;21.90;35.40;;;;;;5009117;28;20399;-85
2021/04/23 10:33:05;;;;;;;1.02;0.20;;;21.90;35.20;;;;;;5011100;28;20034;-85
2021/04/23 10:35:31;;;;;;;1.00;0.30;;;22.10;35.00;;;;;;5010982;28;20037;-88
2021/04/23 10:38:04;;;;;;;0.00;0.00;;;22.10;34.90;;;;;;5040430;28;20037;-86
2021/04/23 10:40:31;;;;;;;0.52;0.20;;;22.10;34.70;;;;;;4992328;28;20050;-84
2021/04/23 10:42:58;;;;;;;0.82;0.13;;;22.20;34.60;;;;;;5033765;28;20478;-83
2021/04/23 10:45:35;;;;;;;0.55;0.10;;;22.40;34.30;;;;;;5006729;28;20046;-83
2021/04/23 10:48:22;;;;;;;0.20;0.00;;;22.50;34.10;;;;;;5008512;28;20034;-86
2021/04/23 10:50:50;;;;;;;0.10;0.10;;;22.60;34.60;;;;;;4992417;28;20034;-85
2021/04/23 10:53:16;;;;;;;1.67;0.57;;;22.70;33.30;;;;;;5010867;28;20030;-80
2021/04/23 10:55:56;;;;;;;1.38;0.20;;;22.70;32.80;;;;;;5010547;28;20038;-78
2021/04/23 10:58:22;;;;;;;0.10;0.00;;;22.60;32.80;;;;;;4992042;28;20030;-76
2021/04/23 11:00:48;;;;;;;0.70;0.10;;;22.70;32.70;;;;;;5010139;28;20386;-76
2021/04/23 11:03:24;;;;;;;4.38;0.10;;;22.70;32.50;;;;;;5007966;28;20152;-76
2021/04/23 11:05:52;;;;;;;0.30;0.00;;;22.80;32.30;;;;;;5009808;28;20032;-76
2021/04/23 11:08:18;;;;;;;0.03;0.03;;;22.90;32.10;;;;;;5010988;28;20030;-75
2021/04/23 11:11:12;;;;;;;0.25;0.22;;;23.00;31.90;;;;;;5020891;28;20411;-75
2021/04/23 11:13:44;;;;;;;0.35;0.10;;;22.90;31.60;;;;;;5010574;28;20466;-76
2021/04/23 11:16:23;;;;;;;0.00;0.00;;;23.00;31.30;;;;;;4987502;28;20038;-76
2021/04/23 11:18:53;;;;;;;0.00;0.00;;;22.90;31.20;;;;;;5010282;28;20030;-75
2021/04/23 11:21:33;;;;;;;0.50;0.17;;;22.90;31.20;;;;;;5038192;28;20022;-75
2021/04/23 11:24:13;;;;;;;1.17;0.27;;;23.00;31.20;;;;;;5010421;28;20026;-75
2021/04/23 11:29:31;;;;;;;0.00;0.00;;;23.00;30.60;;;;;;5008495;28;20042;-75
2021/04/23 11:32:16;;;;;;;0.20;0.10;;;23.10;30.60;;;;;;5023791;28;20038;-75
2021/04/23 11:34:50;;;;;;;0.30;0.10;;;23.10;30.30;;;;;;5032341;28;20034;-76
2021/04/23 11:37:17;;;;;;;0.20;0.08;;;23.10;30.20;;;;;;5005725;28;20038;-76
2021/04/23 11:39:45;;;;;;;0.10;0.00;;;23.20;30.10;;;;;;5010684;28;20048;-76
2021/04/23 11:42:18;;;;;;;0.63;0.40;;;23.30;30.00;;;;;;4993311;28;20041;-76
2021/04/23 11:45:04;;;;;;;0.40;0.00;;;23.40;30.00;;;;;;5011575;28;20876;-76
2021/04/23 11:47:33;;;;;;;1.33;0.47;;;23.60;30.00;;;;;;5007320;28;20046;-77
2021/04/23 11:50:28;;;;;;;1.85;0.30;;;23.60;29.70;;;;;;5021357;28;20426;-77
2021/04/23 11:52:59;;;;;;;0.65;0.30;;;23.60;29.70;;;;;;5018194;28;20038;-77
2021/04/23 11:55:30;;;;;;;0.32;0.10;;;23.60;29.70;;;;;;5021749;28;20518;-76
2021/04/23 11:58:23;;;;;;;0.10;0.05;;;23.70;29.60;;;;;;5016224;28;20037;-78
2021/04/23 12:00:54;;;;;;;1.25;0.40;;;23.60;29.50;;;;;;5034677;28;20475;-76
2021/04/23 12:03:20;;;;;;;;;;;23.60;29.50;;;;;;5007706;28;20030;-75
2021/04/23 12:05:49;;;;;;;4.10;0.10;;;23.60;29.50;;;;;;5009563;28;20405;-75
2021/04/23 12:08:16;;;;;;;0.00;0.00;;;23.60;29.20;;;;;;5010877;28;20050;-75
2021/04/23 12:10:44;;;;;;;1.02;0.22;;;23.60;29.30;;;;;;5038263;28;20038;-75
2021/04/23 12:13:18;;;;;;;0.65;0.20;;;23.60;29.30;;;;;;5007482;28;20026;-75
2021/04/23 12:15:45;;;;;;;0.38;0.10;;;23.70;29.40;;;;;;5001814;28;20033;-75
2021/04/23 12:18:12;;;;;;;1.23;0.15;;;23.80;29.30;;;;;;5008443;28;20052;-75
2021/04/23 12:20:43;;;;;;;0.70;0.20;;;23.90;29.30;;;;;;5008313;28;20037;-75
2021/04/23 12:23:10;;;;;;;;;;;23.90;29.30;;;;;;5010857;28;20030;-75
2021/04/23 12:25:37;;;;;;;5.63;0.52;;;23.90;29.20;;;;;;5008750;28;19910;-76
2021/04/23 12:28:19;;;;;;;0.82;0.30;;;23.90;29.20;;;;;;5008487;28;20026;-75
2021/04/23 12:30:46;;;;;;;0.80;0.20;;;24.00;29.20;;;;;;5009346;28;20038;-75
2021/04/23 12:33:12;;;;;;;1.15;0.10;;;24.00;29.10;;;;;;5008181;28;20033;-76
2021/04/23 12:35:40;;;;;;;2.35;0.55;;;24.10;29.20;;;;;;5008182;28;20037;-76
2021/04/23 12:38:07;;;;;;;0.20;0.00;;;24.20;29.10;;;;;;5022207;28;20025;-75
2021/04/23 12:40:51;;;;;;;1.10;0.35;;;24.30;29.10;;;;;;5008797;28;20054;-76
2021/04/23 12:43:21;;;;;;;0.63;0.10;;;24.30;28.90;;;;;;5006811;28;20056;-76
2021/04/23 12:45:47;;;;;;;0.30;0.10;;;24.30;28.90;;;;;;5013579;28;20045;-75
2021/04/23 12:48:14;;;;;;;0.45;0.10;;;24.40;28.90;;;;;;5009335;28;20033;-76
2021/04/23 12:50:41;;;;;;;0.98;0.22;;;24.40;28.90;;;;;;4991582;28;20045;-75
2021/04/23 12:53:07;;;;;;;0.28;0.10;;;24.50;28.90;;;;;;5014100;28;20019;-74
2021/04/23 12:55:33;;;;;;;0.20;0.00;;;24.60;28.70;;;;;;4989506;28;20502;-75